createdAt,value
2023-04-25T00:02:04.302Z,3.20
2023-04-25T00:05:06.188Z,2.47
2023-04-25T00:08:07.876Z,2.60
2023-04-25T00:11:09.142Z,2.92
2023-04-25T00:14:10.909Z,2.97
2023-04-25T00:17:12.335Z,2.53
2023-04-25T00:20:13.759Z,3.25
2023-04-25T00:23:18.672Z,3.20
2023-04-25T00:26:20.007Z,3.53
2023-04-25T00:29:21.277Z,2.90
2023-04-25T00:32:22.574Z,2.85
2023-04-25T00:35:23.907Z,3.50
2023-04-25T00:38:25.174Z,3.22
2023-04-25T00:41:27.392Z,2.92
2023-04-25T00:44:30.390Z,3.78
2023-04-25T00:47:32.196Z,3.25
2023-04-25T00:50:37.385Z,2.72
2023-04-25T00:53:38.849Z,3.13
2023-04-25T00:56:40.385Z,2.90
2023-04-25T00:59:44.764Z,3.47
2023-04-25T01:02:46.519Z,4.03
2023-04-25T01:05:48.940Z,3.67
2023-04-25T01:08:52.171Z,3.20
2023-04-25T01:11:53.512Z,3.17
2023-04-25T01:14:54.772Z,3.35
2023-04-25T01:17:56.404Z,3.60
2023-04-25T01:20:59.117Z,3.13
2023-04-25T01:24:00.688Z,2.67
2023-04-25T01:27:03.151Z,2.70
2023-04-25T01:30:04.997Z,3.65
2023-04-25T01:33:07.018Z,3.42
2023-04-25T01:36:08.840Z,2.72
2023-04-25T01:39:10.243Z,2.97
2023-04-25T01:42:11.565Z,3.13
2023-04-25T01:45:12.957Z,3.90
2023-04-25T01:48:15.107Z,4.07
2023-04-25T01:51:16.559Z,3.03
2023-04-25T01:54:17.916Z,3.20
2023-04-25T01:57:19.186Z,3.28
2023-04-25T02:00:20.843Z,3.40
2023-04-25T02:03:22.267Z,3.33
2023-04-25T02:06:23.660Z,4.05
2023-04-25T02:09:24.980Z,3.58
2023-04-25T02:12:27.364Z,3.10
2023-04-25T02:15:28.701Z,3.47
2023-04-25T02:18:29.962Z,4.70
2023-04-25T02:21:31.468Z,3.90
2023-04-25T02:24:34.620Z,4.40
2023-04-25T02:27:36.016Z,3.42
2023-04-25T02:30:37.416Z,3.53
2023-04-25T02:33:38.648Z,3.88
2023-04-25T02:36:39.926Z,3.33
2023-04-25T02:39:41.193Z,3.50
2023-04-25T02:42:42.459Z,4.45
2023-04-25T02:45:43.744Z,3.53
2023-04-25T02:48:45.142Z,3.53
2023-04-25T02:51:46.598Z,4.30
2023-04-25T02:54:47.856Z,3.33
2023-04-25T02:57:49.140Z,4.55
2023-04-25T03:00:50.472Z,3.65
2023-04-25T03:03:51.991Z,5.07
2023-04-25T03:06:54.040Z,4.55
2023-04-25T03:09:56.473Z,3.22
2023-04-25T03:12:57.733Z,4.32
2023-04-25T03:15:59.173Z,3.55
2023-04-25T03:19:00.604Z,5.20
2023-04-25T03:22:01.922Z,3.20
2023-04-25T03:25:03.629Z,4.20
2023-04-25T03:28:04.983Z,4.45
2023-04-25T03:31:06.410Z,3.58
2023-04-25T03:34:07.673Z,4.43
2023-04-25T03:37:08.920Z,5.22
2023-04-25T03:40:10.439Z,4.00
2023-04-25T03:43:12.238Z,4.38
2023-04-25T03:46:13.528Z,5.32
2023-04-25T03:49:17.039Z,5.03
2023-04-25T03:52:19.915Z,4.00
2023-04-25T03:55:21.168Z,5.50
2023-04-25T03:58:24.069Z,3.55
2023-04-25T04:01:26.176Z,5.45
2023-04-25T04:04:27.643Z,3.90
2023-04-25T04:07:29.198Z,4.40
2023-04-25T04:10:30.638Z,4.72
2023-04-25T04:13:31.914Z,4.13
2023-04-25T04:16:34.632Z,5.10
2023-04-25T04:19:36.174Z,4.93
2023-04-25T04:22:37.530Z,4.88
2023-04-25T04:25:39.050Z,4.93
2023-04-25T04:28:40.305Z,4.25
2023-04-25T04:31:41.621Z,6.13
2023-04-25T04:34:42.907Z,4.82
2023-04-25T04:37:46.548Z,4.20
2023-04-25T04:40:48.657Z,4.40
2023-04-25T04:43:50.120Z,5.35
2023-04-25T04:46:51.982Z,5.38
2023-04-25T04:49:53.276Z,5.03
2023-04-25T04:52:56.108Z,4.43
2023-04-25T04:55:57.408Z,5.28
2023-04-25T04:58:59.037Z,6.38
2023-04-25T05:02:00.486Z,5.97
2023-04-25T05:05:01.812Z,5.32
2023-04-25T05:08:03.200Z,5.22
2023-04-25T05:11:04.522Z,5.68
2023-04-25T05:14:05.927Z,5.82
2023-04-25T05:17:09.316Z,6.70
2023-04-25T05:20:10.881Z,5.55
2023-04-25T05:23:12.185Z,4.82
2023-04-25T05:26:14.845Z,6.25
2023-04-25T05:29:16.371Z,4.70
2023-04-25T05:32:17.654Z,5.40
2023-04-25T05:35:19.055Z,4.35
2023-04-25T05:38:20.575Z,4.72
2023-04-25T05:41:21.880Z,4.03
2023-04-25T05:44:23.136Z,4.90
2023-04-25T05:47:24.408Z,3.40
2023-04-25T05:50:26.056Z,4.43
2023-04-25T05:53:27.317Z,3.53
2023-04-25T05:56:28.761Z,4.28
2023-04-25T05:59:30.002Z,3.92
2023-04-25T06:02:31.525Z,3.63
2023-04-25T06:05:33.106Z,4.80
2023-04-25T06:08:34.646Z,4.55
2023-04-25T06:11:36.095Z,4.28
2023-04-25T06:14:37.394Z,3.92
2023-04-25T06:17:38.689Z,4.38
2023-04-25T06:20:40.075Z,3.40
2023-04-25T06:23:41.326Z,3.78
2023-04-25T06:26:42.604Z,3.83
2023-04-25T06:29:43.894Z,3.88
2023-04-25T06:32:45.202Z,3.55
2023-04-25T06:35:46.657Z,3.80
2023-04-25T06:38:48.049Z,4.15
2023-04-25T06:41:49.649Z,3.88
2023-04-25T06:44:51.010Z,3.30
2023-04-25T06:47:52.373Z,3.45
2023-04-25T06:50:53.757Z,4.53
2023-04-25T06:53:55.092Z,3.35
2023-04-25T06:56:56.692Z,3.30
2023-04-25T06:59:58.839Z,3.53
2023-04-25T07:03:01.076Z,3.42
2023-04-25T07:06:02.712Z,2.88
2023-04-25T07:09:04.049Z,3.42
2023-04-25T07:12:05.572Z,2.63
2023-04-25T07:15:09.024Z,3.00
2023-04-25T07:18:10.376Z,2.92
2023-04-25T07:21:11.705Z,2.65
2023-04-25T07:24:13.021Z,2.78
2023-04-25T07:27:14.337Z,3.45
2023-04-25T07:30:15.732Z,2.53
2023-04-25T07:33:17.004Z,3.72
2023-04-25T07:36:18.301Z,2.97
2023-04-25T07:39:19.599Z,3.33
2023-04-25T07:42:22.085Z,3.83
2023-04-25T07:45:23.428Z,3.70
2023-04-25T07:48:24.752Z,3.00
2023-04-25T07:51:26.856Z,2.30
2023-04-25T07:54:28.236Z,2.45
2023-04-25T07:57:29.951Z,2.75
2023-04-25T08:00:31.246Z,2.67
2023-04-25T08:03:32.716Z,2.30
2023-04-25T08:06:34.687Z,2.50
2023-04-25T08:09:37.667Z,2.25
2023-04-25T08:12:39.006Z,2.25
2023-04-25T08:15:40.441Z,2.30
2023-04-25T08:18:41.845Z,2.17
2023-04-25T08:21:43.183Z,2.83
2023-04-25T08:24:44.452Z,2.40
2023-04-25T08:27:45.724Z,3.30
2023-04-25T08:30:46.986Z,4.18
2023-04-25T08:33:48.306Z,2.28
2023-04-25T08:36:49.588Z,2.42
2023-04-25T08:39:53.317Z,2.45
2023-04-25T08:42:55.387Z,2.40
2023-04-25T08:45:59.254Z,1.98
2023-04-25T08:49:02.147Z,2.70
2023-04-25T08:52:06.575Z,2.70
2023-04-25T08:55:09.988Z,3.60
2023-04-25T08:58:11.795Z,3.00
2023-04-25T09:01:13.257Z,2.40
2023-04-25T09:04:14.708Z,2.75
2023-04-25T09:07:19.495Z,2.55
2023-04-25T09:10:20.901Z,3.00
2023-04-25T09:13:29.232Z,2.80
2023-04-25T09:16:30.606Z,2.63
2023-04-25T09:19:41.729Z,2.53
2023-04-25T09:22:46.636Z,2.65
2023-04-25T09:28:49.262Z,2.60
2023-04-25T09:31:50.603Z,2.72
2023-04-25T09:34:53.352Z,2.30
2023-04-25T09:37:54.857Z,2.17
2023-04-25T09:40:56.509Z,2.70
2023-04-25T09:43:59.649Z,2.13
2023-04-25T09:47:01.344Z,2.10
2023-04-25T09:50:03.038Z,2.15
2023-04-25T09:53:06.431Z,2.58
2023-04-25T09:56:08.877Z,2.08
2023-04-25T09:59:11.012Z,2.45
2023-04-25T10:02:13.417Z,2.33
2023-04-25T10:05:15.619Z,1.63
2023-04-25T10:08:17.664Z,2.35
2023-04-25T10:11:19.166Z,2.08
2023-04-25T10:14:20.608Z,1.98
2023-04-25T10:17:22.068Z,1.88
2023-04-25T10:20:23.597Z,1.90
2023-04-25T10:23:25.494Z,1.75
2023-04-25T10:26:27.408Z,1.50
2023-04-25T10:29:29.950Z,2.03
2023-04-25T10:32:32.347Z,1.70
2023-04-25T10:35:35.053Z,1.58
2023-04-25T10:38:37.178Z,1.55
2023-04-25T10:41:49.146Z,1.70
2023-04-25T10:45:05.236Z,1.67
2023-04-25T10:48:25.371Z,1.65
2023-04-25T10:51:40.015Z,1.63
2023-04-25T10:54:53.648Z,1.83
2023-04-25T10:57:55.588Z,1.30
2023-04-25T11:00:57.745Z,1.35
2023-04-25T11:03:59.585Z,1.77
2023-04-25T11:07:06.401Z,1.92
2023-04-25T11:10:09.087Z,1.73
2023-04-25T11:13:10.408Z,1.20
2023-04-25T11:16:12.992Z,2.85
2023-04-25T11:19:14.869Z,1.52
2023-04-25T11:22:16.314Z,1.55
2023-04-25T11:25:17.733Z,1.70
2023-04-25T11:28:23.617Z,2.00
2023-04-25T11:31:26.366Z,1.70
2023-04-25T11:34:31.741Z,2.75
2023-04-25T11:37:33.186Z,1.38
2023-04-25T11:40:34.438Z,2.13
2023-04-25T11:43:35.888Z,2.13
2023-04-25T11:46:37.271Z,2.05
2023-04-25T11:49:38.628Z,4.28
2023-04-25T11:52:39.938Z,2.13
2023-04-25T11:55:41.326Z,2.10
2023-04-25T11:58:54.972Z,4.60
2023-04-25T12:01:56.682Z,4.03
2023-04-25T12:05:11.764Z,2.15
2023-04-25T12:08:21.853Z,2.00
2023-04-25T12:11:23.333Z,1.80
2023-04-25T12:14:25.665Z,2.40
2023-04-25T12:17:26.902Z,2.25
2023-04-25T12:20:28.167Z,2.00
2023-04-25T12:23:31.552Z,2.65
2023-04-25T12:26:46.717Z,2.33
2023-04-25T12:29:52.233Z,2.17
2023-04-25T12:32:53.554Z,1.92
2023-04-25T12:35:55.383Z,2.50
2023-04-25T12:38:56.805Z,2.38
2023-04-25T12:41:58.074Z,2.35
2023-04-25T12:44:59.409Z,3.00
2023-04-25T12:48:02.116Z,2.58
2023-04-25T12:51:05.488Z,3.03
2023-04-25T12:54:08.049Z,2.90
2023-04-25T12:57:09.432Z,2.17
2023-04-25T13:00:12.517Z,2.42
2023-04-25T13:03:14.150Z,2.38
2023-04-25T13:06:16.168Z,2.55
2023-04-25T13:09:17.467Z,2.30
2023-04-25T13:12:19.131Z,2.17
2023-04-25T13:15:20.720Z,2.38
2023-04-25T13:18:22.020Z,3.15
2023-04-25T13:21:23.388Z,2.05
2023-04-25T13:24:24.629Z,2.05
2023-04-25T13:27:25.968Z,2.78
2023-04-25T13:30:27.472Z,2.40
2023-04-25T13:33:29.378Z,3.17
2023-04-25T13:36:30.660Z,2.80
2023-04-25T13:39:31.916Z,2.92
2023-04-25T13:42:33.421Z,2.67
2023-04-25T13:45:34.725Z,2.63
2023-04-25T13:48:36.182Z,3.30
2023-04-25T13:51:37.471Z,2.78
2023-04-25T13:54:38.784Z,2.53
2023-04-25T13:57:41.410Z,2.30
2023-04-25T14:00:44.389Z,2.30
2023-04-25T14:03:46.382Z,2.50
2023-04-25T14:06:47.958Z,2.85
2023-04-25T14:09:49.502Z,2.25
2023-04-25T14:12:50.924Z,2.53
2023-04-25T14:15:52.358Z,2.50
2023-04-25T14:18:55.311Z,2.30
2023-04-25T14:21:56.759Z,2.50
2023-04-25T14:24:58.999Z,2.60
2023-04-25T14:28:00.431Z,2.05
2023-04-25T14:31:02.122Z,2.20
2023-04-25T14:34:03.485Z,2.25
2023-04-25T14:37:04.776Z,2.45
2023-04-25T14:40:06.467Z,2.50
2023-04-25T14:43:07.774Z,1.90
2023-04-25T14:46:09.342Z,2.30
2023-04-25T14:49:10.649Z,2.65
2023-04-25T14:52:11.888Z,2.08
2023-04-25T14:55:13.236Z,2.50
2023-04-25T14:58:14.536Z,2.22
2023-04-25T15:01:16.136Z,2.33
2023-04-25T15:04:18.394Z,2.50
2023-04-25T15:07:19.885Z,2.33
2023-04-25T15:10:21.518Z,2.35
2023-04-25T15:13:23.050Z,2.03
2023-04-25T15:16:24.459Z,3.38
2023-04-25T15:19:25.781Z,2.35
2023-04-25T15:22:27.511Z,2.20
2023-04-25T15:25:29.844Z,2.33
2023-04-25T15:28:32.421Z,1.90
2023-04-25T15:31:33.721Z,1.98
2023-04-25T15:34:36.271Z,2.20
2023-04-25T15:37:38.191Z,2.20
2023-04-25T15:40:39.565Z,1.77
2023-04-25T15:43:40.886Z,2.03
2023-04-25T15:46:42.232Z,2.30
2023-04-25T15:49:43.503Z,2.10
2023-04-25T15:52:44.890Z,1.85
2023-04-25T15:55:46.515Z,2.95
2023-04-25T15:58:48.084Z,2.38
2023-04-25T16:01:49.455Z,2.05
2023-04-25T16:04:51.537Z,1.77
2023-04-25T16:07:53.963Z,1.52
2023-04-25T16:10:56.057Z,2.25
2023-04-25T16:13:57.320Z,1.77
2023-04-25T16:16:59.935Z,1.85
2023-04-25T16:20:10.382Z,2.30
2023-04-25T16:23:11.811Z,1.55
2023-04-25T16:26:13.156Z,2.10
2023-04-25T16:29:17.714Z,1.83
2023-04-25T16:32:19.409Z,2.10
2023-04-25T16:35:21.037Z,1.90
2023-04-25T16:38:22.311Z,1.95
2023-04-25T16:41:25.044Z,1.63
2023-04-25T16:44:26.440Z,1.90
2023-04-25T16:47:27.793Z,1.60
2023-04-25T16:50:29.133Z,2.05
2023-04-25T16:53:30.430Z,2.03
2023-04-25T16:56:31.834Z,2.35
2023-04-25T16:59:33.153Z,1.95
2023-04-25T17:02:34.552Z,1.77
2023-04-25T17:05:36.228Z,1.55
2023-04-25T17:08:37.632Z,1.95
2023-04-25T17:11:38.976Z,2.00
2023-04-25T17:14:40.479Z,2.35
2023-04-25T17:17:41.917Z,1.75
2023-04-25T17:20:43.352Z,2.55
2023-04-25T17:23:45.741Z,2.10
2023-04-25T17:26:48.769Z,2.42
2023-04-25T17:29:51.033Z,2.35
2023-04-25T17:32:53.020Z,1.90
2023-04-25T17:35:54.401Z,1.73
2023-04-25T17:38:55.822Z,2.10
2023-04-25T17:41:58.955Z,2.08
2023-04-25T17:48:03.805Z,2.40
2023-04-25T17:51:06.424Z,2.90
2023-04-25T17:54:08.315Z,2.20
2023-04-25T17:57:09.585Z,2.30
2023-04-25T18:00:12.922Z,1.73
2023-04-25T18:03:14.394Z,1.90
2023-04-25T18:06:16.834Z,2.17
2023-04-25T18:09:18.213Z,2.72
2023-04-25T18:12:19.934Z,3.95
2023-04-25T18:15:21.998Z,3.63
2023-04-25T18:18:25.609Z,2.95
2023-04-25T18:21:27.390Z,2.83
2023-04-25T18:24:28.721Z,2.22
2023-04-25T18:27:30.050Z,2.08
2023-04-25T18:30:31.364Z,2.28
2023-04-25T18:33:32.673Z,2.55
2023-04-25T18:36:34.357Z,1.95
2023-04-25T18:39:35.789Z,1.73
2023-04-25T18:42:37.962Z,2.30
2023-04-25T18:45:39.234Z,1.60
2023-04-25T18:48:40.668Z,2.03
2023-04-25T18:51:42.090Z,1.80
2023-04-25T18:54:43.414Z,1.67
2023-04-25T18:57:44.712Z,1.98
2023-04-25T19:00:47.538Z,1.98
2023-04-25T19:03:55.691Z,1.67
2023-04-25T19:06:57.787Z,2.25
2023-04-25T19:09:59.191Z,2.10
2023-04-25T19:13:00.716Z,1.90
2023-04-25T19:16:02.028Z,1.98
2023-04-25T19:19:03.347Z,1.60
2023-04-25T19:22:04.795Z,2.20
2023-04-25T19:25:10.352Z,1.50
2023-04-25T19:28:13.800Z,1.95
2023-04-25T19:31:15.308Z,1.85
2023-04-25T19:34:16.685Z,1.90
2023-04-25T19:37:18.132Z,2.58
2023-04-25T19:40:21.190Z,2.97
2023-04-25T19:43:22.515Z,2.90
2023-04-25T19:46:24.552Z,2.83
2023-04-25T19:49:26.875Z,1.83
2023-04-25T19:52:28.149Z,2.75
2023-04-25T19:55:29.671Z,2.83
2023-04-25T19:58:31.199Z,1.85
2023-04-25T20:01:32.523Z,2.95
2023-04-25T20:04:33.840Z,2.40
2023-04-25T20:07:35.270Z,2.00
2023-04-25T20:10:36.794Z,1.60
2023-04-25T20:13:38.071Z,2.15
2023-04-25T20:16:39.465Z,2.65
2023-04-25T20:19:40.804Z,2.15
2023-04-25T20:22:42.108Z,1.92
2023-04-25T20:25:43.547Z,1.92
2023-04-25T20:28:44.924Z,2.70
2023-04-25T20:31:46.274Z,2.55
2023-04-25T20:34:47.680Z,1.80
2023-04-25T20:37:49.658Z,2.05
2023-04-25T20:40:51.890Z,2.05
2023-04-25T20:43:54.159Z,1.85
2023-04-25T20:46:56.316Z,2.40
2023-04-25T20:49:59.230Z,1.95
2023-04-25T20:53:00.709Z,1.77
2023-04-25T20:56:02.649Z,2.05
2023-04-25T20:59:04.468Z,1.63
2023-04-25T21:02:05.870Z,2.20
2023-04-25T21:05:07.341Z,2.08
2023-04-25T21:08:08.649Z,1.77
2023-04-25T21:11:10.004Z,1.58
2023-04-25T21:14:11.551Z,1.88
2023-04-25T21:17:12.943Z,1.80
2023-04-25T21:20:15.903Z,1.60
2023-04-25T21:23:17.991Z,1.85
2023-04-25T21:26:19.290Z,1.42
2023-04-25T21:29:20.641Z,1.38
2023-04-25T21:32:22.090Z,2.10
2023-04-25T21:35:23.478Z,1.65
2023-04-25T21:38:24.816Z,1.95
2023-04-25T21:41:26.182Z,2.97
2023-04-25T21:44:30.111Z,2.70
2023-04-25T21:47:32.227Z,2.65
2023-04-25T21:50:33.551Z,2.35
2023-04-25T21:53:34.898Z,2.03
2023-04-25T21:56:36.577Z,2.55
2023-04-25T21:59:37.940Z,2.45
2023-04-25T22:02:40.054Z,2.42
2023-04-25T22:05:41.785Z,2.22
2023-04-25T22:08:43.083Z,2.20
2023-04-25T22:11:44.439Z,2.65
2023-04-25T22:14:45.908Z,1.73
2023-04-25T22:17:47.459Z,2.33
2023-04-25T22:20:49.624Z,2.58
2023-04-25T22:23:52.162Z,3.45
2023-04-25T22:26:54.203Z,2.42
2023-04-25T22:29:55.451Z,1.50
2023-04-25T22:32:56.949Z,2.22
2023-04-25T22:35:58.300Z,2.17
2023-04-25T22:38:59.604Z,2.00
2023-04-25T22:42:00.884Z,3.45
2023-04-25T22:45:02.903Z,1.83
2023-04-25T22:48:04.369Z,2.83
2023-04-25T22:51:06.128Z,2.70
2023-04-25T22:54:07.398Z,2.65
2023-04-25T22:57:08.643Z,2.72
2023-04-25T23:00:18.849Z,3.03
2023-04-25T23:03:20.223Z,2.83
2023-04-25T23:06:21.681Z,2.25
2023-04-25T23:09:23.058Z,2.60
2023-04-25T23:12:24.324Z,2.78
2023-04-25T23:15:26.311Z,2.40
2023-04-25T23:18:28.296Z,2.63
2023-04-25T23:21:29.634Z,3.05
2023-04-25T23:24:31.595Z,2.28
2023-04-25T23:27:32.882Z,2.72
2023-04-25T23:30:34.286Z,2.60
2023-04-25T23:33:35.767Z,2.75
2023-04-25T23:36:36.996Z,1.52
2023-04-25T23:39:38.342Z,1.98
2023-04-25T23:42:40.872Z,2.65
2023-04-25T23:45:43.809Z,2.10
2023-04-25T23:48:45.097Z,2.10
2023-04-25T23:51:46.446Z,2.65
2023-04-25T23:54:47.711Z,2.53
2023-04-25T23:57:49.135Z,2.03
